Soignies, Belgium
Current Conditions -  °F | °C
As of 4:25 PM on Monday 24 Nov 2014 (Local Time) from EBCV Reporting Station
Clear Clear  
Wind Chill: 44°   Ceiling: Unl
Heat Index: 46°   Visibility: 6mi
Dew Point: 41°   Wind: 6mph
Humidity: 81%   Direction: 30°NNE
Pressure: 30.3"   Gusts: NA
Location:  50.58°N, 4.07°E
Report Text: EBCV 241525Z AUTO 03005KT 9999 NCD 08/05 Q1026 BLU
Loading
Personal Weather Stations






























Interactive Weather Map New forecast layout! Learn more

10-Day Weather Forecast

Advertisements
Track Severe Weather on mobile